In Rescue
 
Open Full Screen Window  High Contrast Mode
July 25, 2021 7:26 AM CDT
Weather Information
Wind Direction
  ---
Wind Speed
  00 kt (0 mph)
Wind Gust
  00 kt (0 mph)
Altimeter
29.99 in
Visibility
10 SM
Temperature
21° C
70° F
Dewpoint
14° C
57° F
Humidity
64%
1hr Rain Fall
00.00 in.
24hr Rain Fall
00.00 in.
Sky Condition
Clear
VFR

METAR KSGS 251226Z AUTO 00000KT 10SM CLR 21/14 A2999 RMK AO2 T02070138

FAA Disclaimer: The data displayed is for advisory purposes only and is not to be used for flight planning or operations.